Time;durP1;ratioP1;P1;durP2;ratioP2;P2;SDS_P1;SDS_P2;PMS_P1;PMS_P2;Temp;Humidity;BMP_temperature;BMP_pressure;BME280_temperature;BME280_humidity;BME280_pressure;Samples;Min_cycle;Max_cycle;Signal;HPM_P1;HPM_P2
2022/10/18 00:00:15;;;;;;;1.27;1.20;;;13.90;93.40;13.20;96937.00;;;;5114656;28;20547;-53
2022/10/18 00:02:41;;;;;;;0.90;0.90;;;13.90;93.50;13.20;96932.00;;;;5096839;28;20585;-54
2022/10/18 00:05:08;;;;;;;1.00;0.93;;;13.90;93.50;13.20;96927.00;;;;5115118;28;20519;-53
2022/10/18 00:07:37;;;;;;;1.53;1.37;;;13.80;93.00;13.20;96921.00;;;;5114775;28;20529;-52
2022/10/18 00:10:05;;;;;;;1.60;1.50;;;13.90;92.60;13.10;96912.00;;;;5114673;28;20344;-52
2022/10/18 00:12:33;;;;;;;0.87;0.87;;;13.80;92.20;13.10;96914.00;;;;5114758;28;20212;-52
2022/10/18 00:15:00;;;;;;;1.37;1.27;;;13.80;92.10;13.10;96916.00;;;;5114649;28;20226;-52
2022/10/18 00:17:26;;;;;;;1.30;1.20;;;13.80;92.40;13.10;96909.00;;;;5114693;28;20266;-52
2022/10/18 00:19:53;;;;;;;1.77;1.67;;;13.80;91.90;13.10;96915.00;;;;5114460;28;20275;-52
2022/10/18 00:22:19;;;;;;;1.00;1.00;;;13.70;91.90;13.10;96921.00;;;;5114561;28;20221;-53
2022/10/18 00:24:46;;;;;;;1.07;1.07;;;13.70;91.50;13.10;96935.00;;;;5114681;28;20254;-55
2022/10/18 00:27:12;;;;;;;1.27;1.27;;;13.70;91.20;13.00;96923.00;;;;5096598;28;20244;-54
2022/10/18 00:29:39;;;;;;;2.33;1.13;;;13.60;91.20;13.00;96925.00;;;;5114465;28;20174;-52
2022/10/18 00:32:06;;;;;;;0.90;0.90;;;13.60;91.20;13.00;96926.00;;;;5114410;28;20269;-52
2022/10/18 00:34:32;;;;;;;0.70;0.70;;;13.70;91.70;13.00;96923.00;;;;5114354;28;20652;-54
2022/10/18 00:36:59;;;;;;;3.03;1.47;;;13.70;91.80;13.10;96923.00;;;;5114525;28;20210;-52
2022/10/18 00:39:25;;;;;;;1.20;1.20;;;13.70;92.00;13.20;96921.00;;;;5114395;28;20279;-53
2022/10/18 00:41:52;;;;;;;0.80;0.80;;;13.80;92.60;13.20;96910.00;;;;5114654;28;20243;-57
2022/10/18 00:45:18;;;;;;;0.90;0.90;;;13.80;92.30;13.20;96923.00;;;;5114490;28;20221;-54
2022/10/18 00:47:52;;;;;;;0.70;0.70;;;13.80;92.40;13.10;96928.00;;;;5110265;28;20587;-52
2022/10/18 00:50:20;;;;;;;0.80;0.80;;;13.80;93.00;13.20;96921.00;;;;5114158;28;20182;-52
2022/10/18 00:52:52;;;;;;;1.00;1.00;;;13.80;93.40;13.10;96930.00;;;;5114005;28;20210;-51
2022/10/18 00:55:21;;;;;;;0.87;0.87;;;13.80;93.10;13.10;96916.00;;;;5114107;28;20206;-53
2022/10/18 00:57:49;;;;;;;0.90;0.90;;;13.80;93.30;13.00;96920.00;;;;5113878;28;20651;-51
2022/10/18 01:00:18;;;;;;;1.53;1.43;;;13.70;93.10;13.00;96923.00;;;;5113055;28;20253;-52
2022/10/18 01:02:46;;;;;;;1.90;1.13;;;13.70;92.80;12.90;96928.00;;;;5112975;28;20202;-52
2022/10/18 01:05:15;;;;;;;1.00;0.97;;;13.60;93.00;12.90;96925.00;;;;5113934;28;20217;-52
2022/10/18 01:08:06;;;;;;;0.80;0.80;;;13.60;92.90;12.90;96925.00;;;;5095952;28;20204;-52
2022/10/18 01:10:46;;;;;;;0.60;0.60;;;13.60;93.20;12.90;96924.00;;;;5113801;28;20233;-52
2022/10/18 01:13:31;;;;;;;0.87;0.87;;;13.50;93.20;12.90;96934.00;;;;5095938;28;20265;-52
2022/10/18 01:16:11;;;;;;;2.77;1.10;;;13.60;93.30;12.90;96929.00;;;;5113733;28;20305;-52
2022/10/18 01:18:48;;;;;;;1.60;1.37;;;13.40;93.70;12.90;96928.00;;;;5113720;28;20528;-53
2022/10/18 01:21:42;;;;;;;1.00;1.00;;;13.50;93.70;12.90;96925.00;;;;5113585;28;20228;-52
2022/10/18 01:24:45;;;;;;;0.77;0.77;;;13.50;94.30;13.00;96925.00;;;;5113737;28;20197;-52
2022/10/18 01:27:40;;;;;;;0.90;0.90;;;13.60;94.40;13.00;96928.00;;;;5113571;28;20221;-52
2022/10/18 01:30:45;;;;;;;0.97;0.97;;;13.70;94.50;13.00;96910.00;;;;5113673;28;20216;-52
2022/10/18 01:33:25;;;;;;;0.87;0.87;;;13.60;94.10;13.00;96912.00;;;;5011503;28;20259;-52
2022/10/18 01:36:01;;;;;;;0.80;0.80;;;13.70;94.20;12.90;96926.00;;;;5088909;28;20216;-52
2022/10/18 01:38:31;;;;;;;1.00;0.90;;;13.70;93.80;12.90;96927.00;;;;5113557;28;20556;-52
2022/10/18 01:40:59;;;;;;;1.23;1.23;;;13.70;93.80;12.90;96935.00;;;;5113541;28;20197;-52
2022/10/18 01:43:29;;;;;;;1.53;1.47;;;13.60;93.60;12.90;96919.00;;;;5112447;28;20230;-52
2022/10/18 01:45:59;;;;;;;3.10;1.10;;;13.60;93.70;12.90;96921.00;;;;5113422;28;20202;-52
2022/10/18 01:48:28;;;;;;;0.70;0.70;;;13.60;93.90;12.90;96918.00;;;;5113460;28;20196;-52
2022/10/18 01:50:55;;;;;;;0.70;0.70;;;13.60;94.10;12.90;96910.00;;;;5113383;28;20563;-54
2022/10/18 01:53:29;;;;;;;1.10;1.10;;;13.60;95.10;12.90;96913.00;;;;5113529;28;20281;-53
2022/10/18 01:56:33;;;;;;;1.27;1.27;;;13.60;94.60;12.90;96907.00;;;;5113461;28;20226;-52
2022/10/18 01:59:16;;;;;;;1.63;1.53;;;13.60;94.40;12.90;96912.00;;;;5113293;28;20317;-53
2022/10/18 02:01:57;;;;;;;0.43;0.43;;;13.60;94.60;12.90;96909.00;;;;5113134;28;20253;-51
2022/10/18 02:04:36;;;;;;;0.63;0.63;;;13.60;95.00;12.90;96908.00;;;;5113202;28;20237;-52
2022/10/18 02:07:12;;;;;;;0.70;0.70;;;13.60;95.20;13.00;96906.00;;;;5113074;28;20217;-52
2022/10/18 02:09:45;;;;;;;0.87;0.87;;;;;13.00;96899.00;;;;5113124;28;20335;-52
2022/10/18 02:12:15;;;;;;;1.23;1.23;;;13.70;94.80;13.00;96896.00;;;;5113104;28;20279;-51
2022/10/18 02:14:44;;;;;;;0.70;0.70;;;13.70;95.40;13.10;96888.00;;;;5115013;28;20297;-51
2022/10/18 02:17:15;;;;;;;1.00;1.00;;;13.70;95.30;13.10;96892.00;;;;5116382;28;20193;-52
2022/10/18 02:19:45;;;;;;;1.20;1.20;;;13.70;95.10;13.00;96893.00;;;;5115656;28;20314;-53
2022/10/18 02:22:14;;;;;;;1.73;1.63;;;13.70;94.80;12.90;96896.00;;;;5116972;28;20206;-52
2022/10/18 02:24:47;;;;;;;0.67;0.67;;;13.60;95.20;12.90;96900.00;;;;5116596;28;20205;-52
2022/10/18 02:27:14;;;;;;;0.60;0.60;;;13.60;95.20;12.90;96881.00;;;;5116408;28;20256;-52
2022/10/18 02:29:45;;;;;;;1.20;1.20;;;13.60;95.60;12.90;96883.00;;;;5116579;28;20330;-53
2022/10/18 02:32:20;;;;;;;0.73;0.73;;;13.60;95.80;13.00;96877.00;;;;5116328;28;20190;-51
2022/10/18 02:34:56;;;;;;;1.07;1.07;;;13.60;95.90;13.00;96875.00;;;;5116148;28;20260;-52
2022/10/18 02:37:27;;;;;;;1.30;1.20;;;13.70;95.80;13.00;96877.00;;;;5116125;28;20278;-51
2022/10/18 02:39:53;;;;;;;1.13;1.13;;;13.70;95.80;13.10;96876.00;;;;5115969;28;20681;-51
2022/10/18 02:42:21;;;;;;;1.00;1.00;;;13.70;96.00;13.20;96883.00;;;;5116051;28;20222;-52
2022/10/18 02:44:48;;;;;;;2.63;1.23;;;13.80;95.70;13.10;96884.00;;;;5116199;28;20290;-52
2022/10/18 02:47:15;;;;;;;0.80;0.80;;;13.70;95.30;13.10;96877.00;;;;5115975;28;20198;-51
2022/10/18 02:49:43;;;;;;;0.80;0.80;;;13.70;95.60;13.00;96877.00;;;;5115945;28;20273;-52
2022/10/18 02:52:10;;;;;;;0.87;0.87;;;13.70;95.60;13.00;96875.00;;;;5115844;28;20683;-51
2022/10/18 02:54:36;;;;;;;0.70;0.70;;;13.70;95.80;13.10;96874.00;;;;5115845;28;20594;-54
2022/10/18 02:57:03;;;;;;;1.10;1.10;;;13.70;96.10;13.00;96870.00;;;;5115817;28;20278;-51
2022/10/18 02:59:32;;;;;;;1.57;1.47;;;13.70;95.80;13.00;96875.00;;;;5115716;28;20242;-53
2022/10/18 03:01:58;;;;;;;1.03;1.00;;;13.70;95.90;13.00;96879.00;;;;5115607;28;20250;-51
2022/10/18 03:04:25;;;;;;;4.17;2.10;;;13.70;95.50;13.00;96843.00;;;;5097794;28;20682;-52
2022/10/18 03:06:54;;;;;;;0.70;0.70;;;13.70;95.40;13.00;96882.00;;;;5115661;28;20202;-53
2022/10/18 03:09:20;;;;;;;0.77;0.77;;;13.60;95.20;13.00;96885.00;;;;5115524;28;20217;-53
2022/10/18 03:11:46;;;;;;;0.80;0.80;;;13.60;95.30;12.90;96884.00;;;;5115798;28;20297;-52
2022/10/18 03:14:13;;;;;;;3.90;1.50;;;13.60;95.40;12.90;96880.00;;;;5115750;28;20243;-53
2022/10/18 03:16:39;;;;;;;0.80;0.80;;;13.60;95.30;12.90;96886.00;;;;5115643;28;20194;-53
2022/10/18 03:19:06;;;;;;;0.70;0.70;;;13.50;95.40;12.80;96887.00;;;;5115507;28;20332;-53
2022/10/18 03:21:33;;;;;;;0.93;0.93;;;13.50;95.30;12.80;96885.00;;;;5115616;28;20528;-54
2022/10/18 03:23:59;;;;;;;1.00;1.00;;;13.40;95.40;12.80;96877.00;;;;5115711;28;20541;-54
2022/10/18 03:26:26;;;;;;;0.60;0.60;;;13.40;95.30;12.80;96874.00;;;;5096855;28;20198;-52
2022/10/18 03:28:55;;;;;;;1.40;1.37;;;13.40;95.10;12.70;96877.00;;;;5115350;28;20197;-54
2022/10/18 03:31:21;;;;;;;1.10;1.10;;;13.40;95.20;12.50;96878.00;;;;5115158;28;20232;-52
2022/10/18 03:33:48;;;;;;;1.60;1.50;;;13.30;95.20;12.50;96887.00;;;;5115233;28;20226;-53
2022/10/18 03:36:14;;;;;;;9.00;1.23;;;13.20;96.10;12.50;96874.00;;;;5115130;28;20229;-53
2022/10/18 03:38:42;;;;;;;3.53;1.50;;;13.20;96.20;12.50;96860.00;;;;5115026;28;20200;-52
2022/10/18 03:41:08;;;;;;;0.77;0.77;;;13.10;96.30;12.50;96875.00;;;;5115268;28;20210;-55
2022/10/18 03:43:35;;;;;;;0.63;0.63;;;13.20;96.30;12.50;96874.00;;;;5115086;28;20272;-52
2022/10/18 03:46:01;;;;;;;1.57;1.47;;;13.20;96.20;12.60;96879.00;;;;5115076;28;20194;-51
2022/10/18 03:48:28;;;;;;;0.70;0.70;;;13.30;96.20;12.60;96867.00;;;;5115195;28;20230;-52
2022/10/18 03:50:54;;;;;;;1.00;1.00;;;13.20;95.80;12.60;96884.00;;;;5115118;28;20262;-53
2022/10/18 03:53:21;;;;;;;1.77;1.50;;;13.20;95.70;12.60;96880.00;;;;5114964;28;20230;-52
2022/10/18 03:55:54;;;;;;;1.00;1.00;;;13.20;95.50;12.50;96886.00;;;;5114874;28;20664;-52
2022/10/18 03:58:22;;;;;;;0.60;0.60;;;13.30;95.70;12.50;96878.00;;;;5096978;28;20709;-52
2022/10/18 04:00:50;;;;;;;0.93;0.93;;;13.20;95.50;12.50;96878.00;;;;5113749;28;20621;-52
2022/10/18 04:03:20;;;;;;;0.93;0.93;;;13.20;95.70;12.60;96877.00;;;;5113972;28;20630;-52
2022/10/18 04:05:48;;;;;;;0.70;0.70;;;13.30;95.70;12.70;96873.00;;;;5114920;28;20192;-52
2022/10/18 04:08:16;;;;;;;8.93;2.00;;;13.40;95.10;12.50;96880.00;;;;5114673;28;20213;-53
2022/10/18 04:10:43;;;;;;;0.80;0.80;;;13.30;95.30;12.50;96879.00;;;;5096683;28;20190;-52
2022/10/18 04:13:10;;;;;;;0.77;0.77;;;13.30;95.90;12.50;96876.00;;;;5114532;28;20221;-51
2022/10/18 04:15:37;;;;;;;0.70;0.70;;;13.20;96.20;12.60;96881.00;;;;5114580;28;20267;-52
2022/10/18 04:18:03;;;;;;;0.90;0.90;;;13.20;96.30;12.50;96870.00;;;;5114487;28;20217;-52
2022/10/18 04:20:30;;;;;;;1.10;1.10;;;13.20;96.20;12.50;96881.00;;;;5114497;28;20221;-53
2022/10/18 04:22:57;;;;;;;0.70;0.70;;;13.20;96.40;12.60;96877.00;;;;5114375;28;20219;-53
2022/10/18 04:25:24;;;;;;;2.47;1.33;;;13.20;96.50;12.60;96881.00;;;;5114489;28;20306;-52
2022/10/18 04:27:50;;;;;;;0.67;0.67;;;13.30;96.50;12.60;96884.00;;;;5114368;28;20193;-53
2022/10/18 04:30:18;;;;;;;1.20;1.20;;;13.30;96.10;12.50;96889.00;;;;5114352;28;20198;-52
2022/10/18 04:32:46;;;;;;;1.27;1.10;;;13.30;96.20;12.50;96885.00;;;;5114287;28;20269;-53
2022/10/18 04:35:13;;;;;;;1.00;1.00;;;13.20;96.30;12.50;96877.00;;;;5114453;28;20214;-52
2022/10/18 04:37:39;;;;;;;0.80;0.80;;;13.20;97.10;12.50;96876.00;;;;5114250;28;20232;-55
2022/10/18 04:40:10;;;;;;;0.63;0.63;;;13.20;96.40;12.60;96889.00;;;;5096201;28;20222;-53
2022/10/18 04:42:37;;;;;;;0.67;0.67;;;13.30;96.60;12.60;96881.00;;;;5114228;28;20186;-54
2022/10/18 04:45:04;;;;;;;1.13;1.13;;;13.30;97.50;12.80;96882.00;;;;5114179;28;20210;-51
2022/10/18 04:47:31;;;;;;;0.90;0.90;;;13.40;99.30;12.80;96892.00;;;;5114061;28;20190;-51
2022/10/18 04:49:57;;;;;;;1.47;1.37;;;13.50;96.80;12.80;96886.00;;;;5114191;28;20194;-53
2022/10/18 04:52:24;;;;;;;0.50;0.50;;;13.50;96.30;12.70;96896.00;;;;5114152;28;20198;-52
2022/10/18 04:54:50;;;;;;;0.80;0.80;;;13.50;96.20;12.80;96896.00;;;;5113927;28;20305;-52
2022/10/18 04:57:16;;;;;;;1.03;1.03;;;13.50;96.60;12.90;96892.00;;;;5113919;28;20210;-52
2022/10/18 04:59:43;;;;;;;0.80;0.80;;;13.50;96.80;12.90;96903.00;;;;5113832;28;20230;-52
2022/10/18 05:02:09;;;;;;;0.67;0.67;;;13.50;96.80;13.00;96893.00;;;;5113880;28;20236;-56
2022/10/18 05:04:38;;;;;;;1.23;1.23;;;13.60;96.90;13.10;96893.00;;;;5113799;28;20253;-54
2022/10/18 05:07:05;;;;;;;0.90;0.90;;;13.70;97.20;13.10;96897.00;;;;5095773;28;20536;-52
2022/10/18 05:09:32;;;;;;;0.80;0.80;;;;;13.00;96892.00;;;;5113799;28;20221;-52
2022/10/18 05:11:58;;;;;;;1.60;1.17;;;13.70;95.10;12.90;96889.00;;;;5113736;28;20250;-53
2022/10/18 05:14:27;;;;;;;1.40;1.30;;;13.60;95.20;12.80;96901.00;;;;5113799;28;20228;-53
2022/10/18 05:16:54;;;;;;;0.70;0.70;;;13.50;95.40;12.70;96889.00;;;;5095746;28;20704;-53
2022/10/18 05:19:22;;;;;;;0.67;0.67;;;13.50;95.70;12.70;96899.00;;;;5113616;28;20233;-58
2022/10/18 05:21:50;;;;;;;0.70;0.70;;;13.40;96.00;12.70;96897.00;;;;5113934;28;20296;-55
2022/10/18 05:24:18;;;;;;;0.60;0.60;;;13.50;96.20;12.70;96895.00;;;;5113501;28;20289;-52
2022/10/18 05:26:45;;;;;;;0.90;0.90;;;13.40;96.20;12.70;96900.00;;;;5113602;28;20182;-54
2022/10/18 05:29:12;;;;;;;0.83;0.83;;;13.40;96.30;12.70;96888.00;;;;5113330;28;20645;-52
2022/10/18 05:31:41;;;;;;;0.60;0.60;;;13.40;96.10;12.70;96893.00;;;;5113554;28;20190;-53
2022/10/18 05:34:07;;;;;;;0.97;0.97;;;13.40;96.00;12.60;96893.00;;;;5113406;28;20717;-52
2022/10/18 05:36:33;;;;;;;1.10;1.00;;;13.30;95.70;12.60;96890.00;;;;5113666;28;20205;-52
2022/10/18 05:39:03;;;;;;;0.80;0.80;;;13.30;95.50;12.40;96905.00;;;;5113436;28;20190;-53
2022/10/18 05:41:30;;;;;;;15.97;1.70;;;13.20;95.20;12.40;96896.00;;;;5113628;28;20202;-52
2022/10/18 05:43:56;;;;;;;0.93;0.93;;;13.10;94.90;12.30;96888.00;;;;5113454;28;20625;-52
2022/10/18 05:46:23;;;;;;;0.80;0.80;;;13.00;95.20;12.30;96893.00;;;;5113357;28;20225;-53
2022/10/18 05:48:50;;;;;;;0.80;0.80;;;13.00;95.10;12.10;96887.00;;;;5114061;28;20570;-54
2022/10/18 05:51:16;;;;;;;0.80;0.80;;;13.00;95.00;12.20;96888.00;;;;5116920;28;20189;-52
2022/10/18 05:53:43;;;;;;;1.50;1.40;;;12.90;95.40;12.20;96889.00;;;;5116928;28;20297;-53
2022/10/18 05:56:10;;;;;;;1.70;1.60;;;12.90;95.70;12.30;96887.00;;;;5098892;28;20209;-53
2022/10/18 05:58:38;;;;;;;1.37;1.27;;;12.90;95.90;12.30;96894.00;;;;5116769;28;20194;-54
2022/10/18 06:01:06;;;;;;;1.00;1.00;;;12.90;96.00;12.30;96895.00;;;;5116681;28;20225;-52
2022/10/18 06:03:33;;;;;;;0.80;0.80;;;12.90;96.80;12.30;96898.00;;;;5116916;28;20190;-52
2022/10/18 06:06:00;;;;;;;4.90;1.63;;;13.00;96.10;12.30;96851.00;;;;5116597;28;20222;-53
2022/10/18 06:08:27;;;;;;;0.90;0.90;;;13.00;96.00;12.30;96890.00;;;;5116708;28;20210;-52
2022/10/18 06:10:54;;;;;;;0.70;0.70;;;13.10;96.00;12.40;96888.00;;;;5116552;28;20279;-53
2022/10/18 06:13:21;;;;;;;1.30;1.20;;;13.00;95.80;12.40;96887.00;;;;5098785;28;20521;-53
2022/10/18 06:15:48;;;;;;;1.23;1.23;;;13.00;95.80;12.30;96901.00;;;;5116474;28;20621;-53
2022/10/18 06:18:14;;;;;;;0.60;0.60;;;13.00;95.90;12.40;96907.00;;;;5116354;28;20210;-52
2022/10/18 06:20:43;;;;;;;1.53;1.47;;;13.10;96.40;12.50;96897.00;;;;5116253;28;20218;-53
2022/10/18 06:23:09;;;;;;;1.10;1.10;;;13.10;96.10;12.60;96910.00;;;;5116368;28;20292;-54
2022/10/18 06:25:36;;;;;;;1.23;1.23;;;13.20;96.00;12.60;96900.00;;;;5116425;28;20877;-52
2022/10/18 06:28:04;;;;;;;1.07;0.97;;;13.30;95.80;12.60;96897.00;;;;5116487;28;20210;-53
2022/10/18 06:30:34;;;;;;;1.07;1.07;;;13.30;95.80;12.60;96895.00;;;;5098454;28;20226;-53
2022/10/18 06:33:00;;;;;;;0.80;0.80;;;13.30;95.40;12.60;96894.00;;;;5098385;28;20216;-52
2022/10/18 06:35:27;;;;;;;0.93;0.93;;;13.30;95.40;12.60;96902.00;;;;5116070;28;20312;-52
2022/10/18 06:37:53;;;;;;;0.83;0.67;;;13.30;95.20;12.60;96899.00;;;;5116198;28;20210;-52
2022/10/18 06:40:19;;;;;;;6.80;1.10;;;13.30;95.10;12.50;96893.00;;;;5098149;28;20375;-54
2022/10/18 06:42:48;;;;;;;1.27;1.27;;;13.20;95.30;12.50;96885.00;;;;5098133;28;20545;-52
2022/10/18 06:45:17;;;;;;;0.93;0.93;;;13.10;95.70;12.50;96894.00;;;;5115837;28;20210;-52
2022/10/18 06:47:44;;;;;;;0.90;0.90;;;13.20;95.90;12.60;96890.00;;;;5118911;28;20663;-52
2022/10/18 06:50:11;;;;;;;0.70;0.70;;;13.20;95.90;12.60;96897.00;;;;5119001;28;20277;-53
2022/10/18 06:52:38;;;;;;;1.50;1.40;;;13.30;96.00;12.70;96902.00;;;;5116084;28;20229;-54
2022/10/18 06:55:06;;;;;;;1.23;1.23;;;13.30;95.60;12.70;96900.00;;;;5115931;28;20653;-53
2022/10/18 06:57:32;;;;;;;1.00;1.00;;;13.30;95.20;12.80;96903.00;;;;5115832;28;20182;-54
2022/10/18 06:59:58;;;;;;;0.80;0.80;;;13.40;95.30;12.90;96913.00;;;;5115043;28;20217;-52
2022/10/18 07:02:25;;;;;;;3.27;2.10;;;13.50;96.20;13.10;96919.00;;;;5115319;28;20350;-54
2022/10/18 07:04:52;;;;;;;1.40;1.30;;;13.70;96.10;13.10;96926.00;;;;5115816;28;20214;-53
2022/10/18 07:07:20;;;;;;;0.80;0.80;;;13.70;95.70;13.10;96926.00;;;;5115567;28;20289;-53
2022/10/18 07:09:46;;;;;;;1.13;1.13;;;13.80;96.10;13.20;96928.00;;;;5115907;28;20198;-50
2022/10/18 07:12:16;;;;;;;1.60;1.50;;;13.80;95.80;13.30;96922.00;;;;5115726;28;20286;-55
2022/10/18 07:14:44;;;;;;;1.40;1.40;;;14.00;95.60;13.50;96922.00;;;;5115326;28;20205;-51
2022/10/18 07:17:10;;;;;;;0.93;0.93;;;14.10;95.90;13.70;96908.00;;;;5115593;28;20201;-53
2022/10/18 07:19:37;;;;;;;0.63;0.63;;;14.30;95.70;13.90;96925.00;;;;5115504;28;20214;-56
2022/10/18 07:22:06;;;;;;;0.93;0.93;;;14.40;95.50;14.10;96918.00;;;;5115560;28;20198;-53
2022/10/18 07:24:33;;;;;;;0.80;0.80;;;14.60;94.90;14.20;96915.00;;;;5115435;28;20309;-55
2022/10/18 07:26:59;;;;;;;1.63;1.53;;;14.70;94.70;14.20;96909.00;;;;5115505;28;20201;-53
2022/10/18 07:29:25;;;;;;;0.77;0.77;;;14.80;93.80;14.30;96912.00;;;;5115247;28;20198;-52
2022/10/18 07:31:52;;;;;;;0.63;0.63;;;14.90;94.30;14.30;96917.00;;;;5115405;28;20235;-52
2022/10/18 07:34:21;;;;;;;0.70;0.70;;;14.90;92.70;14.10;96913.00;;;;5115442;28;20284;-53
2022/10/18 07:36:47;;;;;;;2.07;1.50;;;14.70;93.10;14.20;96916.00;;;;5115304;28;20277;-52
2022/10/18 07:39:15;;;;;;;0.70;0.70;;;14.80;93.50;14.30;96921.00;;;;5115075;28;20202;-52
2022/10/18 07:41:42;;;;;;;1.17;1.07;;;14.90;93.50;14.50;96926.00;;;;5115009;28;20225;-53
2022/10/18 07:44:08;;;;;;;0.87;0.87;;;15.00;93.70;14.60;96933.00;;;;5115340;28;20245;-54
2022/10/18 07:46:35;;;;;;;0.90;0.90;;;15.10;93.50;14.40;96939.00;;;;5114991;28;20190;-53
2022/10/18 07:49:01;;;;;;;11.80;1.37;;;15.10;92.30;14.50;96937.00;;;;5115005;28;20274;-54
2022/10/18 07:51:29;;;;;;;1.27;1.27;;;15.10;92.50;14.50;96939.00;;;;5115196;28;20217;-53
2022/10/18 07:53:56;;;;;;;1.00;1.00;;;;;14.60;96941.00;;;;5114854;28;20294;-53
2022/10/18 07:56:23;;;;;;;0.67;0.67;;;15.20;91.50;14.70;96944.00;;;;5114900;28;20206;-51
2022/10/18 07:58:54;;;;;;;0.60;0.60;;;15.30;92.00;14.90;96942.00;;;;5114787;28;20321;-51
2022/10/18 08:01:23;;;;;;;0.97;0.97;;;15.40;91.70;15.00;96915.00;;;;5114750;28;20221;-51
2022/10/18 08:03:51;;;;;;;0.80;0.80;;;15.50;91.50;15.10;96948.00;;;;5114795;28;20205;-52
2022/10/18 08:06:21;;;;;;;0.80;0.80;;;15.60;91.70;15.20;96950.00;;;;5114658;28;20194;-51
2022/10/18 08:08:49;;;;;;;1.00;1.00;;;15.70;91.70;15.30;96955.00;;;;5114746;28;20355;-51
2022/10/18 08:11:19;;;;;;;0.73;0.73;;;15.80;91.70;15.40;96956.00;;;;5114372;28;20274;-51
2022/10/18 08:13:47;;;;;;;0.60;0.60;;;15.90;91.60;15.50;96956.00;;;;5114736;28;20202;-52
2022/10/18 08:16:16;;;;;;;0.73;0.73;;;16.00;91.00;15.50;96947.00;;;;5114603;28;20237;-51
2022/10/18 08:18:43;;;;;;;0.63;0.63;;;16.00;91.00;15.60;96948.00;;;;5114642;28;20194;-52
2022/10/18 08:21:12;;;;;;;0.80;0.80;;;16.10;90.60;15.50;96942.00;;;;5114639;28;20704;-51
2022/10/18 08:23:39;;;;;;;0.70;0.70;;;16.10;90.40;15.50;96940.00;;;;5113735;28;20266;-52
2022/10/18 08:26:09;;;;;;;1.90;1.27;;;16.10;90.60;15.60;96941.00;;;;5114567;28;20277;-52
2022/10/18 08:28:36;;;;;;;0.73;0.73;;;16.20;91.00;15.60;96942.00;;;;5096516;28;20264;-53
2022/10/18 08:31:04;;;;;;;0.70;0.70;;;16.20;91.10;15.70;96941.00;;;;5096517;28;20202;-52
2022/10/18 08:33:31;;;;;;;0.73;0.73;;;16.20;90.90;15.90;96951.00;;;;5114372;28;20288;-52
2022/10/18 08:35:59;;;;;;;0.70;0.70;;;16.40;90.20;16.00;96923.00;;;;5114293;28;20286;-53
2022/10/18 08:38:29;;;;;;;0.97;0.97;;;16.50;90.20;16.10;96947.00;;;;5114222;28;20708;-52
2022/10/18 08:40:55;;;;;;;0.60;0.60;;;16.60;90.40;16.40;96942.00;;;;5114084;28;20534;-52
2022/10/18 08:43:33;;;;;;;0.80;0.80;;;16.90;91.00;16.60;96949.00;;;;5096347;28;20204;-54
2022/10/18 08:45:59;;;;;;;0.80;0.80;;;17.00;90.30;16.90;96941.00;;;;5096280;28;20312;-52
2022/10/18 08:48:38;;;;;;;2.53;1.57;;;17.40;89.20;17.20;96949.00;;;;5114322;28;20213;-56
2022/10/18 08:51:15;;;;;;;0.80;0.80;;;17.50;87.60;17.50;96948.00;;;;5114041;28;20217;-52
2022/10/18 08:53:55;;;;;;;0.83;0.83;;;17.80;86.30;17.80;96937.00;;;;5114010;28;20270;-52
2022/10/18 08:56:23;;;;;;;0.57;0.57;;;;;18.10;96945.00;;;;5114012;28;20217;-54
2022/10/18 08:58:50;;;;;;;0.93;0.93;;;18.40;99.90;18.20;96944.00;;;;5114201;28;20198;-53
2022/10/18 09:01:46;;;;;;;0.70;0.70;;;18.50;82.30;18.30;96952.00;;;;5095807;28;20321;-52
2022/10/18 09:04:43;;;;;;;0.50;0.50;;;18.70;82.00;18.10;96957.00;;;;5113996;28;20273;-53
2022/10/18 09:07:32;;;;;;;1.40;1.30;;;18.50;82.30;17.80;96959.00;;;;5095879;28;20329;-52
2022/10/18 09:10:13;;;;;;;0.60;0.60;;;18.40;80.50;17.70;96951.00;;;;5113909;28;20206;-53
2022/10/18 09:13:11;;;;;;;0.50;0.50;;;18.20;81.30;17.90;96932.00;;;;5113981;28;20225;-52
2022/10/18 09:15:48;;;;;;;0.73;0.73;;;18.30;81.70;18.10;96956.00;;;;5113996;28;20239;-54
2022/10/18 09:18:42;;;;;;;1.13;1.07;;;18.50;81.70;18.20;96956.00;;;;5114040;28;20190;-53
2022/10/18 09:21:19;;;;;;;3.47;1.43;;;18.50;81.30;18.30;96959.00;;;;5113757;28;20660;-53
2022/10/18 09:23:48;;;;;;;0.80;0.80;;;18.70;80.10;18.50;96940.00;;;;5114403;28;20197;-52
2022/10/18 09:26:19;;;;;;;0.70;0.70;;;18.90;79.70;18.60;96931.00;;;;5117356;28;20308;-54
2022/10/18 09:29:06;;;;;;;0.63;0.63;;;19.00;79.80;18.70;96967.00;;;;5117427;28;20194;-54
2022/10/18 09:31:47;;;;;;;1.00;1.00;;;19.00;79.90;18.80;96958.00;;;;5099299;28;20256;-53
2022/10/18 09:34:25;;;;;;;0.80;0.80;;;19.20;79.40;18.90;96956.00;;;;5117287;28;20500;-54
2022/10/18 09:36:53;;;;;;;0.90;0.90;;;19.30;78.50;19.20;96932.00;;;;5117035;28;20538;-57
2022/10/18 09:39:27;;;;;;;0.83;0.83;;;19.50;78.10;19.40;96956.00;;;;5117117;28;20202;-53
2022/10/18 09:42:00;;;;;;;1.60;1.50;;;19.80;77.30;19.40;96959.00;;;;5117113;28;20193;-51
2022/10/18 09:44:34;;;;;;;1.37;1.27;;;19.80;76.30;19.60;96957.00;;;;5117142;28;20225;-53
2022/10/18 09:47:09;;;;;;;0.80;0.80;;;19.90;75.90;19.70;96960.00;;;;5117071;28;20203;-52
2022/10/18 09:49:44;;;;;;;0.80;0.80;;;20.20;76.10;19.70;96961.00;;;;5098876;28;20221;-50
2022/10/18 09:52:19;;;;;;;0.80;0.80;;;20.10;74.90;20.00;96951.00;;;;5098934;28;20201;-52
2022/10/18 09:54:53;;;;;;;0.93;0.93;;;20.30;70.20;20.40;96959.00;;;;5116784;28;20232;-52
2022/10/18 09:57:31;;;;;;;30.17;1.37;;;20.60;72.30;20.50;96954.00;;;;5116841;28;20475;-53
2022/10/18 10:00:02;;;;;;;2.37;1.23;;;20.80;71.90;20.80;96955.00;;;;5116604;28;20222;-53
2022/10/18 10:02:31;;;;;;;0.50;0.50;;;21.10;68.80;20.70;96967.00;;;;5098863;28;20561;-53
2022/10/18 10:04:57;;;;;;;0.50;0.50;;;21.10;67.80;20.60;96967.00;;;;5116761;28;20201;-54
2022/10/18 10:07:27;;;;;;;0.40;0.40;;;21.10;66.20;20.50;96962.00;;;;5116628;28;20214;-55
2022/10/18 10:09:58;;;;;;;0.67;0.67;;;21.00;65.80;20.20;96967.00;;;;5098619;28;20205;-53
2022/10/18 10:12:31;;;;;;;0.70;0.70;;;20.70;67.50;20.20;96972.00;;;;5116513;28;20214;-53
2022/10/18 10:15:18;;;;;;;0.73;0.73;;;20.70;68.80;20.20;96967.00;;;;5116548;28;20274;-53
2022/10/18 10:17:54;;;;;;;0.67;0.67;;;20.60;66.80;20.40;96972.00;;;;5116831;28;20286;-51
2022/10/18 10:20:27;;;;;;;0.60;0.60;;;20.70;65.80;20.40;96965.00;;;;5116429;28;20232;-51
2022/10/18 10:23:05;;;;;;;0.50;0.50;;;20.80;65.30;20.50;96963.00;;;;5116505;28;20190;-53
2022/10/18 10:25:36;;;;;;;19.27;1.43;;;20.80;66.20;20.80;96961.00;;;;5116482;28;20244;-51
2022/10/18 10:28:11;;;;;;;0.70;0.70;;;21.10;64.20;20.80;96969.00;;;;5116391;28;20191;-53
2022/10/18 10:30:37;;;;;;;0.50;0.50;;;21.20;62.30;21.00;96989.00;;;;5116255;28;20663;-52
2022/10/18 10:33:06;;;;;;;1.00;0.90;;;;;20.60;96984.00;;;;5116373;28;20201;-51
2022/10/18 10:35:36;;;;;;;0.50;0.50;;;21.10;58.40;20.90;96973.00;;;;5115994;28;20213;-55
2022/10/18 10:38:04;;;;;;;0.63;0.63;;;21.10;60.80;20.60;96978.00;;;;5116237;28;20195;-51
2022/10/18 10:40:34;;;;;;;0.57;0.57;;;21.10;59.40;20.50;96961.00;;;;5115832;28;20261;-50
2022/10/18 10:43:13;;;;;;;0.50;0.50;;;;;20.30;96971.00;;;;5116089;28;20200;-51
2022/10/18 10:45:55;;;;;;;0.50;0.50;;;20.80;59.60;20.40;96970.00;;;;5116098;28;20217;-53
2022/10/18 10:48:23;;;;;;;0.80;0.80;;;20.80;60.80;20.60;96964.00;;;;5116134;28;20552;-51
2022/10/18 10:50:55;;;;;;;0.60;0.60;;;20.90;59.90;20.40;96964.00;;;;5098083;28;20198;-53
2022/10/18 10:53:42;;;;;;;1.03;1.00;;;;;20.40;96978.00;;;;5116035;28;20241;-50
2022/10/18 10:56:25;;;;;;;0.50;0.50;;;;;20.30;96965.00;;;;5114423;28;20217;-50
2022/10/18 10:58:54;;;;;;;0.60;0.60;;;20.80;57.10;20.70;96944.00;;;;5115805;28;20645;-52
2022/10/18 11:01:32;;;;;;;0.40;0.40;;;21.00;57.80;20.90;96969.00;;;;5115786;28;20714;-52
2022/10/18 11:04:03;;;;;;;0.50;0.50;;;21.20;57.20;20.90;96958.00;;;;5097885;28;20229;-52
2022/10/18 11:06:49;;;;;;;0.50;0.50;;;21.30;56.10;21.10;96961.00;;;;5115813;28;20217;-52
2022/10/18 11:09:55;;;;;;;0.57;0.57;;;21.40;54.30;21.10;96968.00;;;;5115579;28;20288;-52
2022/10/18 11:12:31;;;;;;;0.40;0.40;;;21.50;54.40;21.30;96957.00;;;;5064700;28;20608;-52